Time;durP1;ratioP1;P1;durP2;ratioP2;P2;SDS_P1;SDS_P2;PMS_P1;PMS_P2;Temp;Humidity;BMP_temperature;BMP_pressure;BME280_temperature;BME280_humidity;BME280_pressure;Samples;Min_cycle;Max_cycle;Signal;HPM_P1;HPM_P2
2022/10/05 00:01:45;;;;;;;6.13;3.25;;;;;;;;;;5083867;28;20032;-53
2022/10/05 00:04:15;;;;;;;4.65;2.70;;;;;;;;;;5066024;28;20021;-54
2022/10/05 00:06:56;;;;;;;10.25;2.78;;;;;;;;;;5063244;28;20032;-45
2022/10/05 00:09:22;;;;;;;12.40;3.53;;;;;;;;;;5064740;28;20111;-54
2022/10/05 00:11:48;;;;;;;9.95;3.08;;;;;;;;;;5064718;28;20500;-53
2022/10/05 00:14:17;;;;;;;11.18;3.58;;;;;;;;;;5085014;28;20031;-53
2022/10/05 00:16:43;;;;;;;7.03;3.28;;;;;;;;;;5085765;28;20031;-56
2022/10/05 00:19:33;;;;;;;11.15;3.00;;;;;;;;;;5084951;28;20393;-54
2022/10/05 00:22:20;;;;;;;6.60;3.63;;;;;;;;;;5076593;28;20036;-51
2022/10/05 00:24:48;;;;;;;9.75;3.83;;;;;;;;;;5081382;28;20048;-51
2022/10/05 00:27:23;;;;;;;7.22;3.97;;;;;;;;;;5085686;28;20580;-51
2022/10/05 00:29:50;;;;;;;13.40;4.18;;;;;;;;;;5084188;28;20084;-54
2022/10/05 00:32:15;;;;;;;10.35;3.60;;;;;;;;;;5089185;28;20445;-51
2022/10/05 00:34:42;;;;;;;7.00;3.40;;;;;;;;;;5084344;28;20016;-50
2022/10/05 00:37:07;;;;;;;6.82;3.25;;;;;;;;;;5082866;28;20101;-54
2022/10/05 00:39:35;;;;;;;10.60;4.30;;;;;;;;;;5087606;28;20032;-52
2022/10/05 00:42:03;;;;;;;11.40;3.83;;;;;;;;;;5089954;28;20051;-54
2022/10/05 00:45:00;;;;;;;13.65;4.30;;;;;;;;;;5082231;28;20048;-52
2022/10/05 00:47:35;;;;;;;7.38;3.22;;;;;;;;;;5057487;28;20136;-55
2022/10/05 00:50:27;;;;;;;10.02;4.10;;;;;;;;;;5060901;28;20760;-54
2022/10/05 00:53:03;;;;;;;17.80;4.72;;;;;;;;;;5057737;28;20049;-48
2022/10/05 00:55:56;;;;;;;12.60;5.32;;;;;;;;;;5062720;28;20025;-52
2022/10/05 00:58:36;;;;;;;;;;;;;;;;;;5043953;28;20045;-51
2022/10/05 01:01:10;;;;;;;10.77;4.35;;;;;;;;;;5040105;28;20446;-47
2022/10/05 01:04:01;;;;;;;9.43;4.03;;;;;;;;;;5053532;28;20484;-52
2022/10/05 01:06:59;;;;;;;17.88;4.32;;;;;;;;;;5057859;28;20040;-53
2022/10/05 01:09:37;;;;;;;13.13;4.30;;;;;;;;;;5041225;28;20048;-50
2022/10/05 01:12:35;;;;;;;12.55;4.78;;;;;;;;;;5040914;28;20071;-48
2022/10/05 01:15:41;;;;;;;8.77;4.00;;;;;;;;;;5013489;28;20624;-48
2022/10/05 01:18:37;;;;;;;8.52;3.90;;;;;;;;;;5013375;28;20045;-53
2022/10/05 01:21:03;;;;;;;10.73;4.43;;;;;;;;;;5011218;28;20026;-55
2022/10/05 01:23:42;;;;;;;11.80;4.88;;;;;;;;;;5012976;28;20064;-53
2022/10/05 01:26:51;;;;;;;9.35;4.50;;;;;;;;;;5030437;28;20125;-50
2022/10/05 01:29:24;;;;;;;12.63;4.68;;;;;;;;;;5028952;28;20068;-53
2022/10/05 01:32:08;;;;;;;9.57;4.63;;;;;;;;;;5033023;28;20095;-52
2022/10/05 01:34:39;;;;;;;7.15;3.60;;;;;;;;;;5029593;28;20025;-50
2022/10/05 01:37:16;;;;;;;13.20;4.30;;;;;;;;;;5031506;28;20049;-51
2022/10/05 01:40:00;;;;;;;7.95;3.92;;;;;;;;;;5031417;28;20029;-53
2022/10/05 01:43:03;;;;;;;13.43;4.18;;;;;;;;;;5033353;28;20190;-52
2022/10/05 01:45:31;;;;;;;12.90;4.03;;;;;;;;;;5004978;28;20038;-54
2022/10/05 01:48:36;;;;;;;11.20;3.92;;;;;;;;;;5015070;28;20054;-53
2022/10/05 01:51:16;;;;;;;7.15;3.72;;;;;;;;;;4974961;28;20461;-52
2022/10/05 01:54:03;;;;;;;8.93;3.28;;;;;;;;;;4984703;28;20038;-53
2022/10/05 01:56:28;;;;;;;12.85;3.55;;;;;;;;;;4984392;28;20050;-49
2022/10/05 01:59:06;;;;;;;9.73;3.50;;;;;;;;;;4986130;28;20041;-47
2022/10/05 02:01:41;;;;;;;11.43;3.75;;;;;;;;;;4988916;28;20125;-52
2022/10/05 02:04:15;;;;;;;5.18;3.55;;;;;;;;;;4988609;28;20622;-54
2022/10/05 02:06:45;;;;;;;9.60;4.00;;;;;;;;;;4987850;28;20510;-53
2022/10/05 02:09:23;;;;;;;10.82;3.83;;;;;;;;;;4988186;28;20490;-51
2022/10/05 02:11:59;;;;;;;15.48;3.63;;;;;;;;;;4988426;28;20092;-51
2022/10/05 02:14:32;;;;;;;7.10;3.67;;;;;;;;;;4988823;28;20120;-51
2022/10/05 02:17:04;;;;;;;10.95;4.10;;;;;;;;;;4989026;28;20113;-48
2022/10/05 02:19:40;;;;;;;8.32;3.22;;;;;;;;;;4986304;28;20026;-49
2022/10/05 02:22:31;;;;;;;9.45;4.35;;;;;;;;;;4982153;28;21131;-47
2022/10/05 02:25:01;;;;;;;8.05;3.80;;;;;;;;;;4987491;28;20034;-50
2022/10/05 02:27:30;;;;;;;5.25;3.50;;;;;;;;;;5019926;28;20036;-51
2022/10/05 02:30:00;;;;;;;9.68;3.97;;;;;;;;;;5088339;28;21079;-50
2022/10/05 02:32:34;;;;;;;7.40;3.70;;;;;;;;;;5080285;28;20037;-46
2022/10/05 02:35:03;;;;;;;7.60;3.45;;;;;;;;;;5066000;28;20630;-52
2022/10/05 02:37:31;;;;;;;8.05;3.55;;;;;;;;;;5066878;28;20433;-51
2022/10/05 02:40:03;;;;;;;7.90;3.25;;;;;;;;;;5068254;28;20055;-46
2022/10/05 02:42:47;;;;;;;10.77;3.63;;;;;;;;;;5066184;28;20075;-53
2022/10/05 02:45:41;;;;;;;6.47;3.40;;;;;;;;;;5069482;28;20052;-52
2022/10/05 02:48:50;;;;;;;6.78;3.45;;;;;;;;;;5017887;28;20050;-50
2022/10/05 02:51:26;;;;;;;8.40;4.55;;;;;;;;;;4996668;28;20517;-50
2022/10/05 02:54:06;;;;;;;11.32;3.90;;;;;;;;;;5023604;28;20041;-54
2022/10/05 02:56:50;;;;;;;8.23;3.55;;;;;;;;;;5034511;28;20114;-50
2022/10/05 02:59:25;;;;;;;12.48;3.92;;;;;;;;;;5014841;28;20046;-46
2022/10/05 03:01:52;;;;;;;9.55;4.13;;;;;;;;;;5018287;28;20475;-51
2022/10/05 03:04:48;;;;;;;10.02;3.90;;;;;;;;;;5036782;28;20033;-52
2022/10/05 03:07:32;;;;;;;7.07;3.78;;;;;;;;;;5030496;28;20068;-49
2022/10/05 03:10:07;;;;;;;11.30;3.58;;;;;;;;;;5013461;28;20033;-48
2022/10/05 03:12:59;;;;;;;8.88;3.90;;;;;;;;;;5012988;28;20045;-48
2022/10/05 03:15:53;;;;;;;16.43;4.97;;;;;;;;;;5009020;28;20060;-51
2022/10/05 03:18:31;;;;;;;11.65;4.50;;;;;;;;;;5014213;28;20823;-53
2022/10/05 03:21:12;;;;;;;12.25;4.47;;;;;;;;;;5012946;28;20037;-53
2022/10/05 03:23:47;;;;;;;12.00;4.22;;;;;;;;;;5015694;28;20054;-51
2022/10/05 03:26:27;;;;;;;11.73;4.45;;;;;;;;;;5066635;28;20047;-52
2022/10/05 03:29:16;;;;;;;10.05;4.00;;;;;;;;;;5067741;28;20045;-50
2022/10/05 03:31:54;;;;;;;10.77;4.88;;;;;;;;;;5065953;28;20031;-51
2022/10/05 03:34:30;;;;;;;15.75;4.40;;;;;;;;;;5084431;28;20040;-51
2022/10/05 03:37:07;;;;;;;10.98;3.97;;;;;;;;;;5085420;28;20040;-53
2022/10/05 03:39:45;;;;;;;11.75;4.07;;;;;;;;;;5085063;28;20060;-50
2022/10/05 03:42:50;;;;;;;15.90;4.45;;;;;;;;;;5082509;28;20095;-47
2022/10/05 03:45:29;;;;;;;11.60;4.55;;;;;;;;;;5061321;28;20137;-53
2022/10/05 03:48:08;;;;;;;8.30;4.70;;;;;;;;;;5066097;28;20064;-52
2022/10/05 03:51:07;;;;;;;12.07;4.95;;;;;;;;;;5066000;28;20028;-48
2022/10/05 03:53:45;;;;;;;11.50;4.50;;;;;;;;;;5066037;28;20037;-45
2022/10/05 03:56:22;;;;;;;13.20;5.10;;;;;;;;;;5064031;28;20200;-47
2022/10/05 03:58:59;;;;;;;7.70;4.70;;;;;;;;;;5064883;28;20383;-51
2022/10/05 04:01:46;;;;;;;8.23;4.70;;;;;;;;;;5066498;28;20028;-52
2022/10/05 04:04:22;;;;;;;10.40;4.70;;;;;;;;;;5086223;28;20169;-48
2022/10/05 04:06:50;;;;;;;12.10;5.32;;;;;;;;;;5082800;28;20024;-50
2022/10/05 04:09:35;;;;;;;10.32;4.90;;;;;;;;;;5086140;28;20396;-45
2022/10/05 04:12:30;;;;;;;10.07;4.40;;;;;;;;;;5083471;28;20040;-52
2022/10/05 04:15:07;;;;;;;12.93;4.88;;;;;;;;;;5065843;28;20055;-47
2022/10/05 04:18:04;;;;;;;10.02;4.85;;;;;;;;;;5070989;28;20047;-49
2022/10/05 04:20:35;;;;;;;16.50;6.22;;;;;;;;;;5080683;28;20068;-45
2022/10/05 04:23:09;;;;;;;10.57;5.18;;;;;;;;;;5081163;28;20053;-46
2022/10/05 04:25:45;;;;;;;15.88;7.20;;;;;;;;;;5082489;28;20028;-50
2022/10/05 04:28:15;;;;;;;12.10;6.20;;;;;;;;;;5078195;28;20127;-52
2022/10/05 04:30:44;;;;;;;16.52;6.88;;;;;;;;;;5081930;28;20825;-48
2022/10/05 04:33:12;;;;;;;17.98;8.57;;;;;;;;;;5079039;28;20040;-47
2022/10/05 04:36:10;;;;;;;24.27;10.10;;;;;;;;;;5078377;28;20103;-46
2022/10/05 04:38:59;;;;;;;21.95;9.48;;;;;;;;;;5074648;28;20044;-49
2022/10/05 04:41:47;;;;;;;30.77;12.35;;;;;;;;;;5085199;28;20028;-46
2022/10/05 04:44:34;;;;;;;31.73;12.80;;;;;;;;;;5061352;28;20041;-51
2022/10/05 04:47:25;;;;;;;31.00;14.27;;;;;;;;;;5064502;28;20028;-47
2022/10/05 04:49:53;;;;;;;37.42;15.48;;;;;;;;;;5081859;28;20023;-45
2022/10/05 04:52:30;;;;;;;36.60;15.63;;;;;;;;;;5080844;28;20160;-50
2022/10/05 04:55:19;;;;;;;34.95;15.68;;;;;;;;;;5082962;28;20024;-48
2022/10/05 04:57:59;;;;;;;40.03;16.05;;;;;;;;;;5084718;28;20432;-46
2022/10/05 05:00:36;;;;;;;39.70;15.52;;;;;;;;;;5086977;28;20028;-47
2022/10/05 05:03:37;;;;;;;43.22;16.88;;;;;;;;;;5079892;28;20047;-46
2022/10/05 05:06:05;;;;;;;39.88;15.55;;;;;;;;;;5060156;28;20044;-47
2022/10/05 05:08:37;;;;;;;40.88;16.92;;;;;;;;;;5059531;28;20045;-50
2022/10/05 05:11:13;;;;;;;38.58;15.38;;;;;;;;;;5057984;28;20037;-47
2022/10/05 05:13:56;;;;;;;41.47;16.05;;;;;;;;;;5050681;28;20040;-46
2022/10/05 05:16:48;;;;;;;43.75;16.90;;;;;;;;;;5055313;28;20402;-46
2022/10/05 05:19:25;;;;;;;45.78;15.90;;;;;;;;;;5053401;28;20036;-45
2022/10/05 05:22:19;;;;;;;47.00;15.25;;;;;;;;;;5056522;28;20033;-45
2022/10/05 05:24:55;;;;;;;37.15;13.90;;;;;;;;;;5056087;28;20051;-48
2022/10/05 05:27:45;;;;;;;40.28;13.63;;;;;;;;;;5051869;28;20516;-49
2022/10/05 05:30:16;;;;;;;37.25;13.30;;;;;;;;;;5058990;28;20139;-45
2022/10/05 05:33:05;;;;;;;29.92;13.77;;;;;;;;;;5060541;28;20049;-51
2022/10/05 05:36:00;;;;;;;29.08;11.73;;;;;;;;;;5057904;28;20168;-51
2022/10/05 05:38:34;;;;;;;36.15;12.38;;;;;;;;;;5056829;28;20467;-46
2022/10/05 05:41:02;;;;;;;34.08;13.30;;;;;;;;;;5056892;28;20032;-52
2022/10/05 05:43:41;;;;;;;34.47;13.50;;;;;;;;;;5075836;28;20584;-46
2022/10/05 05:46:21;;;;;;;29.67;13.20;;;;;;;;;;5079602;28;20392;-50
2022/10/05 05:48:48;;;;;;;39.33;16.92;;;;;;;;;;5076528;28;20092;-47
2022/10/05 05:51:19;;;;;;;46.47;18.60;;;;;;;;;;5075349;28;20016;-51
2022/10/05 05:53:48;;;;;;;45.15;17.10;;;;;;;;;;5075124;28;20040;-48
2022/10/05 05:56:18;;;;;;;43.63;15.45;;;;;;;;;;5084148;28;20040;-50
2022/10/05 05:58:47;;;;;;;42.90;15.65;;;;;;;;;;5081002;28;20043;-47
2022/10/05 06:01:50;;;;;;;41.20;15.52;;;;;;;;;;5083001;28;20020;-50
2022/10/05 06:04:23;;;;;;;41.72;15.02;;;;;;;;;;5029921;28;20037;-48
2022/10/05 06:06:51;;;;;;;34.13;14.70;;;;;;;;;;5033515;28;20057;-48
2022/10/05 06:09:27;;;;;;;45.65;15.82;;;;;;;;;;5077444;28;20024;-45
2022/10/05 06:11:57;;;;;;;40.15;15.60;;;;;;;;;;5080650;28;20147;-51
2022/10/05 06:14:32;;;;;;;39.83;15.50;;;;;;;;;;5085032;28;20487;-52
2022/10/05 06:17:09;;;;;;;40.90;14.68;;;;;;;;;;5081901;28;20085;-52
2022/10/05 06:19:36;;;;;;;37.25;15.23;;;;;;;;;;5086151;28;20569;-48
2022/10/05 06:22:12;;;;;;;39.88;14.52;;;;;;;;;;5082000;28;20051;-51
2022/10/05 06:24:51;;;;;;;39.10;15.02;;;;;;;;;;5085579;28;20044;-49
2022/10/05 06:27:33;;;;;;;38.42;15.85;;;;;;;;;;5082930;28;20048;-48
2022/10/05 06:30:17;;;;;;;40.45;15.95;;;;;;;;;;5079102;28;20024;-47
2022/10/05 06:33:27;;;;;;;40.47;14.95;;;;;;;;;;5078250;28;20051;-48
2022/10/05 06:36:09;;;;;;;37.67;15.88;;;;;;;;;;4999217;28;20073;-49
2022/10/05 06:39:11;;;;;;;37.45;15.63;;;;;;;;;;5000148;28;20046;-54
2022/10/05 06:42:00;;;;;;;38.33;15.55;;;;;;;;;;4983705;28;20042;-47
2022/10/05 06:44:47;;;;;;;36.30;15.63;;;;;;;;;;4981703;28;20254;-49
2022/10/05 06:47:20;;;;;;;32.35;14.02;;;;;;;;;;4971663;28;20062;-52
2022/10/05 06:50:13;;;;;;;37.00;14.52;;;;;;;;;;4967991;28;20061;-46
2022/10/05 06:52:47;;;;;;;32.72;14.82;;;;;;;;;;4973020;28;20121;-50
2022/10/05 06:55:31;;;;;;;28.85;13.80;;;;;;;;;;4986503;28;20038;-48
2022/10/05 06:58:04;;;;;;;33.50;12.68;;;;;;;;;;4986706;28;21078;-48
2022/10/05 07:00:45;;;;;;;27.90;11.73;;;;;;;;;;4979963;28;20113;-50
2022/10/05 07:03:16;;;;;;;24.95;10.45;;;;;;;;;;4980401;28;20043;-50
2022/10/05 07:06:00;;;;;;;19.23;11.02;;;;;;;;;;4966017;28;20206;-49
2022/10/05 07:08:50;;;;;;;20.92;9.77;;;;;;;;;;4983876;28;20517;-45
2022/10/05 07:11:58;;;;;;;17.52;8.93;;;;;;;;;;4990413;28;20049;-49
2022/10/05 07:14:43;;;;;;;16.90;8.60;;;;;;;;;;5028949;28;20060;-52
2022/10/05 07:17:37;;;;;;;11.80;6.65;;;;;;;;;;5031813;28;20040;-44
2022/10/05 07:20:25;;;;;;;10.73;6.22;;;;;;;;;;5064173;28;20037;-46
2022/10/05 07:23:02;;;;;;;11.73;5.75;;;;;;;;;;5064586;28;20462;-45
2022/10/05 07:25:40;;;;;;;12.93;5.70;;;;;;;;;;5068092;28;20030;-48
2022/10/05 07:28:12;;;;;;;7.18;4.95;;;;;;;;;;5071725;28;20059;-44
2022/10/05 07:30:59;;;;;;;8.85;4.55;;;;;;;;;;5073574;28;20114;-45
2022/10/05 07:33:38;;;;;;;9.48;5.35;;;;;;;;;;5080543;28;20051;-48
2022/10/05 07:38:53;;;;;;;11.85;6.47;;;;;;;;;;5085733;28;20089;-51
2022/10/05 07:41:42;;;;;;;10.98;5.20;;;;;;;;;;5088656;28;20024;-48
2022/10/05 07:44:08;;;;;;;6.93;5.30;;;;;;;;;;5061386;28;20113;-47
2022/10/05 07:46:42;;;;;;;8.35;4.45;;;;;;;;;;5059283;28;20039;-50
2022/10/05 07:49:45;;;;;;;9.57;4.35;;;;;;;;;;5085036;28;20048;-50
2022/10/05 07:52:16;;;;;;;8.15;4.78;;;;;;;;;;5083203;28;20416;-46
2022/10/05 07:54:41;;;;;;;10.48;4.93;;;;;;;;;;5062903;28;20035;-45
2022/10/05 07:57:23;;;;;;;5.63;3.95;;;;;;;;;;5073969;28;20048;-45
2022/10/05 07:59:57;;;;;;;12.02;3.60;;;;;;;;;;5086146;28;20035;-51
2022/10/05 08:02:22;;;;;;;10.18;3.70;;;;;;;;;;5086849;28;20479;-45
2022/10/05 08:04:58;;;;;;;8.18;4.57;;;;;;;;;;5085293;28;20028;-49
2022/10/05 08:07:24;;;;;;;13.15;3.53;;;;;;;;;;5085928;28;20042;-48
2022/10/05 08:09:53;;;;;;;12.45;4.18;;;;;;;;;;5084661;28;20035;-53
2022/10/05 08:12:26;;;;;;;7.15;3.25;;;;;;;;;;5085807;28;20044;-50
2022/10/05 08:15:09;;;;;;;3.97;2.67;;;;;;;;;;5083094;28;20047;-50
2022/10/05 08:17:50;;;;;;;5.60;3.28;;;;;;;;;;5083052;28;20073;-51
2022/10/05 08:20:34;;;;;;;8.88;3.00;;;;;;;;;;5086661;28;20028;-46
2022/10/05 08:23:34;;;;;;;7.35;2.92;;;;;;;;;;5086308;28;20105;-51
2022/10/05 08:26:22;;;;;;;9.25;3.92;;;;;;;;;;5082617;28;20032;-50
2022/10/05 08:29:18;;;;;;;9.25;3.55;;;;;;;;;;5065125;28;20412;-48
2022/10/05 08:31:48;;;;;;;9.25;3.40;;;;;;;;;;5063812;28;20038;-54
2022/10/05 08:34:25;;;;;;;6.85;3.53;;;;;;;;;;5085737;28;20024;-51
2022/10/05 08:36:58;;;;;;;9.77;4.32;;;;;;;;;;5083858;28;20028;-53
2022/10/05 08:39:28;;;;;;;9.18;2.85;;;;;;;;;;5081115;28;20036;-49
2022/10/05 08:42:44;;;;;;;9.30;3.05;;;;;;;;;;5085649;28;20064;-52
2022/10/05 08:45:47;;;;;;;5.30;1.92;;;;;;;;;;5084651;28;20049;-49
2022/10/05 08:48:37;;;;;;;12.88;2.85;;;;;;;;;;5085115;28;20379;-53
2022/10/05 08:51:11;;;;;;;11.07;2.35;;;;;;;;;;5084529;28;20020;-53
2022/10/05 08:54:08;;;;;;;7.78;2.10;;;;;;;;;;5089289;28;20041;-48
2022/10/05 08:56:33;;;;;;;4.53;2.00;;;;;;;;;;5085046;28;20031;-53
2022/10/05 08:59:34;;;;;;;8.48;2.08;;;;;;;;;;5063817;28;20041;-51
2022/10/05 09:02:18;;;;;;;6.25;2.30;;;;;;;;;;5065379;28;20044;-48
2022/10/05 09:05:48;;;;;;;4.97;1.92;;;;;;;;;;5064221;28;20043;-52
2022/10/05 09:08:31;;;;;;;8.65;1.80;;;;;;;;;;5036311;28;20053;-50
2022/10/05 09:11:19;;;;;;;7.38;2.70;;;;;;;;;;5042178;28;20051;-54
2022/10/05 09:13:52;;;;;;;6.55;2.10;;;;;;;;;;5023514;28;20478;-54
2022/10/05 09:16:55;;;;;;;7.22;2.45;;;;;;;;;;5021797;28;20045;-55
2022/10/05 09:19:54;;;;;;;8.82;2.10;;;;;;;;;;5024800;28;20121;-50
2022/10/05 09:22:34;;;;;;;6.13;1.88;;;;;;;;;;5022357;28;20473;-50
2022/10/05 09:25:12;;;;;;;2.63;1.90;;;;;;;;;;5024573;28;20119;-48
2022/10/05 09:27:45;;;;;;;7.80;2.17;;;;;;;;;;5021445;28;20060;-52
2022/10/05 09:30:22;;;;;;;5.38;1.90;;;;;;;;;;5023138;28;20160;-53
2022/10/05 09:33:02;;;;;;;12.15;2.22;;;;;;;;;;5024141;28;20033;-53
2022/10/05 09:36:00;;;;;;;7.50;1.77;;;;;;;;;;5025074;28;20036;-51
2022/10/05 09:38:35;;;;;;;8.10;2.10;;;;;;;;;;5025420;28;20040;-51
2022/10/05 09:41:54;;;;;;;4.50;2.08;;;;;;;;;;5066238;28;20024;-50
2022/10/05 09:44:56;;;;;;;5.35;1.73;;;;;;;;;;4988066;28;20132;-52
2022/10/05 09:47:59;;;;;;;4.20;2.10;;;;;;;;;;4989513;28;20046;-53
2022/10/05 09:50:30;;;;;;;7.88;2.10;;;;;;;;;;4999875;28;20122;-48
2022/10/05 09:53:12;;;;;;;7.00;2.20;;;;;;;;;;5032063;28;20052;-50
2022/10/05 09:55:46;;;;;;;6.68;2.13;;;;;;;;;;5033543;28;20036;-51
2022/10/05 09:58:22;;;;;;;6.47;2.03;;;;;;;;;;5029931;28;20086;-53
2022/10/05 10:01:15;;;;;;;5.10;1.80;;;;;;;;;;5036368;28;20029;-52
2022/10/05 10:04:08;;;;;;;3.72;1.80;;;;;;;;;;5030582;28;20049;-54
2022/10/05 10:06:50;;;;;;;3.67;1.70;;;;;;;;;;5026966;28;20041;-53
2022/10/05 10:09:39;;;;;;;6.65;2.17;;;;;;;;;;5032178;28;20543;-49
2022/10/05 10:12:28;;;;;;;5.90;2.15;;;;;;;;;;5029617;28;20601;-53
2022/10/05 10:15:18;;;;;;;3.25;1.85;;;;;;;;;;5034880;28;20119;-49
2022/10/05 10:18:02;;;;;;;4.60;2.25;;;;;;;;;;5048060;28;20560;-54
2022/10/05 10:20:29;;;;;;;5.78;2.05;;;;;;;;;;5084564;28;20412;-51
2022/10/05 10:23:20;;;;;;;8.48;2.38;;;;;;;;;;5076530;28;20064;-54
2022/10/05 10:25:57;;;;;;;4.45;2.10;;;;;;;;;;5067229;28;20051;-54
2022/10/05 10:28:32;;;;;;;5.95;2.10;;;;;;;;;;5071056;28;20050;-53
2022/10/05 10:31:22;;;;;;;6.65;2.10;;;;;;;;;;5067700;28;20032;-53
2022/10/05 10:34:19;;;;;;;6.07;1.92;;;;;;;;;;5066018;28;20390;-53
2022/10/05 10:36:50;;;;;;;4.63;2.08;;;;;;;;;;5065996;28;20093;-53
2022/10/05 10:39:36;;;;;;;3.65;1.90;;;;;;;;;;5066702;28;20044;-52
2022/10/05 10:42:13;;;;;;;7.40;2.50;;;;;;;;;;5066535;28;20063;-55
2022/10/05 10:44:41;;;;;;;6.53;2.03;;;;;;;;;;5085720;28;20074;-53
2022/10/05 10:47:23;;;;;;;3.33;2.00;;;;;;;;;;5088557;28;20060;-53
2022/10/05 10:50:23;;;;;;;8.43;1.83;;;;;;;;;;5085915;28;20481;-52
2022/10/05 10:53:01;;;;;;;6.47;2.20;;;;;;;;;;5085424;28;20060;-53
2022/10/05 10:55:50;;;;;;;9.35;2.22;;;;;;;;;;5085599;28;20036;-55
2022/10/05 10:58:28;;;;;;;5.35;2.22;;;;;;;;;;5086928;28;20393;-53
2022/10/05 11:00:59;;;;;;;5.88;1.83;;;;;;;;;;5087256;28;20024;-52
2022/10/05 11:03:45;;;;;;;6.72;1.98;;;;;;;;;;5087627;28;20073;-54
2022/10/05 11:06:33;;;;;;;6.72;2.47;;;;;;;;;;5082382;28;20035;-50
2022/10/05 11:09:16;;;;;;;5.78;2.40;;;;;;;;;;5085445;28;21340;-54
2022/10/05 11:12:12;;;;;;;6.68;2.10;;;;;;;;;;5084324;28;20115;-52
2022/10/05 11:14:43;;;;;;;5.22;2.13;;;;;;;;;;5062779;28;20032;-53
2022/10/05 11:17:22;;;;;;;4.68;1.80;;;;;;;;;;5067397;28;20054;-54
2022/10/05 11:20:28;;;;;;;7.55;2.10;;;;;;;;;;5064338;28;20025;-55
2022/10/05 11:22:58;;;;;;;4.25;2.00;;;;;;;;;;5061995;28;20040;-50
2022/10/05 11:25:35;;;;;;;7.40;2.28;;;;;;;;;;5067039;28;20563;-51
2022/10/05 11:28:44;;;;;;;4.75;1.90;;;;;;;;;;5065568;28;20041;-54
2022/10/05 11:31:36;;;;;;;7.38;2.40;;;;;;;;;;5067943;28;20033;-54
2022/10/05 11:34:39;;;;;;;7.72;2.50;;;;;;;;;;5087370;28;20044;-50
2022/10/05 11:37:04;;;;;;;6.88;2.25;;;;;;;;;;5087321;28;20125;-54
2022/10/05 11:39:52;;;;;;;5.05;2.10;;;;;;;;;;5086558;28;20040;-54
2022/10/05 11:42:40;;;;;;;5.80;2.10;;;;;;;;;;5085775;28;20036;-53
2022/10/05 11:45:20;;;;;;;8.18;2.22;;;;;;;;;;5087459;28;20522;-52
2022/10/05 11:47:58;;;;;;;6.80;2.00;;;;;;;;;;5088182;28;20054;-55
2022/10/05 11:50:49;;;;;;;8.30;2.33;;;;;;;;;;5084817;28;20041;-52
2022/10/05 11:53:28;;;;;;;5.88;2.20;;;;;;;;;;5075088;28;20144;-52
2022/10/05 11:55:56;;;;;;;4.57;1.77;;;;;;;;;;5064981;28;20030;-55
2022/10/05 11:58:33;;;;;;;7.80;2.40;;;;;;;;;;5080294;28;20044;-54
2022/10/05 12:01:10;;;;;;;7.10;1.90;;;;;;;;;;5082733;28;20028;-53
2022/10/05 12:04:17;;;;;;;2.92;1.90;;;;;;;;;;5069067;28;20049;-50
2022/10/05 12:06:45;;;;;;;6.55;2.17;;;;;;;;;;5061284;28;20108;-54
2022/10/05 12:09:28;;;;;;;3.95;1.70;;;;;;;;;;5085538;28;20036;-52
2022/10/05 12:12:35;;;;;;;5.63;1.90;;;;;;;;;;5085453;28;20028;-54
2022/10/05 12:15:19;;;;;;;5.63;2.20;;;;;;;;;;5083006;28;20051;-50
2022/10/05 12:18:16;;;;;;;10.82;2.10;;;;;;;;;;5083340;28;20040;-51
2022/10/05 12:20:54;;;;;;;3.75;1.88;;;;;;;;;;5044668;28;20599;-53
2022/10/05 12:23:46;;;;;;;4.80;2.38;;;;;;;;;;5042731;28;20051;-52
2022/10/05 12:26:26;;;;;;;10.27;2.63;;;;;;;;;;5031446;28;20044;-53
2022/10/05 12:29:12;;;;;;;5.07;2.50;;;;;;;;;;5046766;28;20041;-50
2022/10/05 12:31:52;;;;;;;4.53;1.52;;;;;;;;;;5042906;28;20037;-53
2022/10/05 12:34:52;;;;;;;5.53;1.88;;;;;;;;;;5044977;28;20055;-54
2022/10/05 12:37:45;;;;;;;6.25;1.77;;;;;;;;;;5043884;28;20442;-51
2022/10/05 12:40:16;;;;;;;5.63;2.00;;;;;;;;;;5044428;28;20036;-54
2022/10/05 12:43:12;;;;;;;7.63;1.85;;;;;;;;;;5046269;28;20531;-47
2022/10/05 12:46:06;;;;;;;5.90;1.92;;;;;;;;;;5044573;28;20045;-52
2022/10/05 12:48:55;;;;;;;6.15;1.95;;;;;;;;;;5044127;28;20133;-54
2022/10/05 12:51:36;;;;;;;7.50;1.85;;;;;;;;;;5044977;28;20080;-47
2022/10/05 12:54:20;;;;;;;6.45;1.98;;;;;;;;;;5023484;28;20072;-51
2022/10/05 12:56:55;;;;;;;4.18;2.00;;;;;;;;;;5028163;28;20044;-49
2022/10/05 12:59:23;;;;;;;6.78;2.20;;;;;;;;;;5066920;28;20266;-49
2022/10/05 13:02:17;;;;;;;5.38;2.38;;;;;;;;;;5065684;28;20104;-50
2022/10/05 13:04:52;;;;;;;7.93;2.08;;;;;;;;;;5081789;28;20080;-51
2022/10/05 13:07:48;;;;;;;5.60;1.90;;;;;;;;;;5081168;28;20028;-51
2022/10/05 13:10:41;;;;;;;7.93;2.30;;;;;;;;;;5084679;28;20156;-52
2022/10/05 13:13:44;;;;;;;7.78;2.30;;;;;;;;;;5070058;28;20541;-49
2022/10/05 13:16:20;;;;;;;5.68;1.98;;;;;;;;;;5066683;28;20035;-51
2022/10/05 13:18:53;;;;;;;8.02;2.42;;;;;;;;;;5063149;28;20465;-49
2022/10/05 13:21:26;;;;;;;7.38;1.80;;;;;;;;;;5065741;28;20043;-50
2022/10/05 13:24:03;;;;;;;7.25;2.05;;;;;;;;;;5079849;28;20047;-54
2022/10/05 13:26:36;;;;;;;4.68;2.03;;;;;;;;;;5083699;28;20046;-49
2022/10/05 13:29:26;;;;;;;6.90;2.20;;;;;;;;;;5081346;27;20048;-54
2022/10/05 13:31:57;;;;;;;3.58;1.70;;;;;;;;;;5082264;28;20063;-47
2022/10/05 13:34:37;;;;;;;12.88;2.33;;;;;;;;;;5085954;28;20047;-49
2022/10/05 13:37:32;;;;;;;3.72;1.70;;;;;;;;;;5083393;28;20052;-50
2022/10/05 13:40:23;;;;;;;5.85;2.33;;;;;;;;;;5085174;28;20044;-54
2022/10/05 13:43:07;;;;;;;8.13;2.40;;;;;;;;;;5086183;28;20071;-54
2022/10/05 13:45:54;;;;;;;6.47;2.22;;;;;;;;;;5080598;28;20040;-49
2022/10/05 13:48:41;;;;;;;8.32;2.38;;;;;;;;;;5084177;28;20036;-50
2022/10/05 13:51:27;;;;;;;8.13;1.70;;;;;;;;;;5088337;28;20028;-54
2022/10/05 13:54:17;;;;;;;5.68;2.60;;;;;;;;;;5084114;28;20043;-53
2022/10/05 13:56:47;;;;;;;3.42;1.60;;;;;;;;;;5082593;28;20496;-48
2022/10/05 13:59:52;;;;;;;11.60;2.13;;;;;;;;;;5090041;28;20063;-50
2022/10/05 14:02:37;;;;;;;12.88;2.33;;;;;;;;;;5073762;28;20288;-47
2022/10/05 14:05:18;;;;;;;4.50;1.80;;;;;;;;;;5066648;28;20040;-51
2022/10/05 14:08:01;;;;;;;5.22;1.88;;;;;;;;;;5063534;28;20036;-50
2022/10/05 14:10:38;;;;;;;9.20;2.70;;;;;;;;;;5067612;28;20066;-51
2022/10/05 14:13:19;;;;;;;7.05;2.30;;;;;;;;;;5072049;28;20569;-52
2022/10/05 14:16:06;;;;;;;8.73;2.00;;;;;;;;;;5069924;28;20036;-52
2022/10/05 14:18:36;;;;;;;15.23;2.47;;;;;;;;;;5079518;28;20047;-52
2022/10/05 14:21:04;;;;;;;11.60;2.25;;;;;;;;;;5091404;28;20388;-48
2022/10/05 14:23:29;;;;;;;7.13;1.90;;;;;;;;;;5086480;28;20602;-48
2022/10/05 14:25:55;;;;;;;10.70;2.65;;;;;;;;;;5086326;28;20028;-55
2022/10/05 14:28:28;;;;;;;6.57;2.17;;;;;;;;;;5072879;28;20067;-50
2022/10/05 14:31:02;;;;;;;13.27;2.60;;;;;;;;;;5066255;28;20032;-49
2022/10/05 14:33:30;;;;;;;10.05;2.53;;;;;;;;;;5078943;28;20050;-47
2022/10/05 14:35:58;;;;;;;12.05;2.67;;;;;;;;;;5089119;28;20115;-51
2022/10/05 14:38:50;;;;;;;7.07;1.95;;;;;;;;;;5082831;28;20040;-51
2022/10/05 14:41:19;;;;;;;11.52;3.03;;;;;;;;;;5086537;28;20111;-48
2022/10/05 14:44:12;;;;;;;6.45;1.75;;;;;;;;;;5084155;28;20166;-49
2022/10/05 14:46:38;;;;;;;4.38;1.77;;;;;;;;;;5077667;28;20500;-50
2022/10/05 14:49:23;;;;;;;9.18;1.92;;;;;;;;;;5085590;28;20123;-49
2022/10/05 14:51:50;;;;;;;8.23;1.80;;;;;;;;;;5083908;28;20388;-47
2022/10/05 14:54:48;;;;;;;7.15;2.15;;;;;;;;;;5066567;28;20027;-52
2022/10/05 14:57:30;;;;;;;8.80;2.10;;;;;;;;;;5064402;28;20040;-54
2022/10/05 15:00:08;;;;;;;6.10;2.33;;;;;;;;;;5086612;28;20066;-53
2022/10/05 15:02:46;;;;;;;3.35;1.73;;;;;;;;;;5086273;28;20055;-53
2022/10/05 15:05:30;;;;;;;4.72;2.33;;;;;;;;;;5085059;28;20115;-50
2022/10/05 15:08:07;;;;;;;4.60;1.90;;;;;;;;;;5084637;28;20032;-47
2022/10/05 15:10:37;;;;;;;4.57;1.70;;;;;;;;;;5083899;28;20020;-51
2022/10/05 15:13:17;;;;;;;7.57;2.40;;;;;;;;;;5083973;28;20036;-53
2022/10/05 15:16:13;;;;;;;7.05;2.95;;;;;;;;;;5086433;28;20028;-50
2022/10/05 15:18:55;;;;;;;6.30;1.90;;;;;;;;;;5086925;28;20135;-48
2022/10/05 15:21:41;;;;;;;8.05;1.63;;;;;;;;;;5084743;28;20468;-49
2022/10/05 15:24:15;;;;;;;10.35;2.00;;;;;;;;;;5086763;28;20040;-51
2022/10/05 15:26:43;;;;;;;5.90;2.10;;;;;;;;;;5084366;28;20032;-52
2022/10/05 15:29:35;;;;;;;5.47;1.85;;;;;;;;;;5082688;28;20119;-50
2022/10/05 15:32:15;;;;;;;7.15;2.00;;;;;;;;;;5080855;28;20035;-53
2022/10/05 15:35:19;;;;;;;8.38;1.95;;;;;;;;;;5089854;28;20052;-51
2022/10/05 15:37:52;;;;;;;5.07;1.83;;;;;;;;;;5020327;28;20071;-50
2022/10/05 15:40:39;;;;;;;8.38;2.20;;;;;;;;;;5020509;28;20460;-49
2022/10/05 15:43:15;;;;;;;7.85;2.05;;;;;;;;;;5005799;28;20226;-53
2022/10/05 15:46:01;;;;;;;6.40;2.42;;;;;;;;;;5004538;28;20093;-53
2022/10/05 15:48:44;;;;;;;12.68;2.33;;;;;;;;;;4998766;28;20574;-53
2022/10/05 15:51:49;;;;;;;6.60;2.10;;;;;;;;;;5014934;28;20053;-50
2022/10/05 15:54:43;;;;;;;11.20;2.45;;;;;;;;;;5015735;28;20052;-52
2022/10/05 15:57:20;;;;;;;7.30;2.13;;;;;;;;;;5015807;28;20468;-50
2022/10/05 16:00:03;;;;;;;11.13;2.40;;;;;;;;;;5020772;28;20100;-52
2022/10/05 16:02:35;;;;;;;4.28;1.70;;;;;;;;;;5015832;28;20041;-48
2022/10/05 16:05:18;;;;;;;12.82;2.20;;;;;;;;;;5017173;28;20744;-49